Time;durP1;ratioP1;P1;durP2;ratioP2;P2;SDS_P1;SDS_P2;PMS_P1;PMS_P2;Temp;Humidity;BMP_temperature;BMP_pressure;BME280_temperature;BME280_humidity;BME280_pressure;Samples;Min_cycle;Max_cycle;Signal;HPM_P1;HPM_P2
2021/12/17 00:07:13;;;;;;;0.35;0.35;;;5.40;99.90;;;;;;4970373;28;20441;-71
2021/12/17 00:09:40;;;;;;;0.10;0.10;;;5.30;99.90;;;;;;4956005;28;20490;-71
2021/12/17 00:12:11;;;;;;;0.10;0.10;;;5.40;99.90;;;;;;4952246;28;20486;-72
2021/12/17 00:14:38;;;;;;;0.10;0.10;;;5.30;99.90;;;;;;4952913;28;20046;-72
2021/12/17 00:17:09;;;;;;;0.65;0.65;;;5.30;99.90;;;;;;4962463;28;20019;-72
2021/12/17 00:19:58;;;;;;;0.20;0.20;;;5.40;99.90;;;;;;4952607;28;20034;-72
2021/12/17 00:48:21;;;;;;;0.10;0.10;;;5.30;99.90;;;;;;4969673;28;20046;-72
2021/12/17 00:52:39;;;;;;;0.70;0.70;;;5.40;99.90;;;;;;4977666;28;20030;-72
2021/12/17 00:55:07;;;;;;;0.10;0.10;;;5.30;99.90;;;;;;4976123;28;20039;-72
2021/12/17 00:57:41;;;;;;;0.10;0.10;;;5.30;99.90;;;;;;4973942;28;20062;-72
2021/12/17 01:00:16;;;;;;;0.35;0.35;;;5.40;99.90;;;;;;4971262;28;20037;-72
2021/12/17 01:02:42;;;;;;;0.10;0.10;;;5.40;99.90;;;;;;4967975;28;20038;-72
2021/12/17 01:05:19;;;;;;;0.10;0.10;;;5.40;99.90;;;;;;4973236;28;20086;-72
2021/12/17 01:07:48;;;;;;;0.30;0.30;;;5.50;99.90;;;;;;4973328;28;20035;-72
2021/12/17 01:10:24;;;;;;;0.15;0.15;;;5.40;99.90;;;;;;4962458;28;20046;-72
2021/12/17 01:12:50;;;;;;;0.40;0.40;;;5.30;99.90;;;;;;4954124;28;20027;-71
2021/12/17 01:15:18;;;;;;;0.10;0.10;;;5.40;99.90;;;;;;4952387;28;20369;-73
2021/12/17 01:17:46;;;;;;;0.10;0.10;;;5.40;99.90;;;;;;4968656;28;20421;-72
2021/12/17 01:36:17;;;;;;;0.10;0.10;;;5.70;99.90;;;;;;4966518;28;20042;-73
2021/12/17 01:41:50;;;;;;;0.10;0.10;;;5.90;99.90;;;;;;4972956;28;20481;-71
2021/12/17 01:44:17;;;;;;;0.10;0.10;;;6.00;99.90;;;;;;4972399;28;20097;-71
2021/12/17 01:46:44;;;;;;;1.95;1.85;;;5.90;99.90;;;;;;4955220;28;20042;-73
2021/12/17 02:00:04;;;;;;;0.10;0.10;;;5.90;99.90;;;;;;4972389;28;20027;-72
2021/12/17 02:02:32;;;;;;;0.10;0.10;;;5.90;99.90;;;;;;4971982;28;20027;-71
2021/12/17 02:04:58;;;;;;;0.10;0.10;;;5.80;99.90;;;;;;4975688;28;20536;-72
2021/12/17 02:07:24;;;;;;;0.10;0.10;;;5.70;99.90;;;;;;4973723;28;20030;-71
2021/12/17 02:13:05;;;;;;;0.10;0.10;;;5.70;99.90;;;;;;4958969;28;20047;-71
2021/12/17 02:32:06;;;;;;;3.75;2.38;;;5.50;99.90;;;;;;4952783;28;20122;-73
2021/12/17 02:37:24;;;;;;;0.10;0.10;;;5.60;99.90;;;;;;4971953;28;20113;-72
2021/12/17 02:42:21;;;;;;;0.10;0.10;;;5.60;99.90;;;;;;4952357;28;20024;-71
2021/12/17 02:45:32;;;;;;;0.10;0.10;;;5.50;99.90;;;;;;4970530;28;20031;-72
2021/12/17 02:48:10;;;;;;;0.20;0.20;;;5.50;99.90;;;;;;4963622;28;20023;-73
2021/12/17 02:50:41;;;;;;;0.10;0.10;;;5.60;99.90;;;;;;4966706;28;20030;-71
2021/12/17 02:53:07;;;;;;;0.80;0.80;;;5.40;99.90;;;;;;4970776;28;20038;-71
2021/12/17 02:55:37;;;;;;;0.10;0.10;;;5.60;99.90;;;;;;4967946;28;20035;-73
2021/12/17 02:58:04;;;;;;;0.60;0.60;;;5.60;99.90;;;;;;4951561;28;20110;-72
2021/12/17 03:00:31;;;;;;;1.02;1.02;;;5.60;99.90;;;;;;4965598;28;20599;-72
2021/12/17 03:02:58;;;;;;;0.10;0.10;;;5.60;99.90;;;;;;4971036;28;20037;-72
2021/12/17 03:05:26;;;;;;;0.10;0.10;;;5.70;99.90;;;;;;4964620;28;20114;-72
2021/12/17 03:07:52;;;;;;;0.10;0.10;;;5.80;99.90;;;;;;4950895;28;20032;-72
2021/12/17 03:10:18;;;;;;;0.40;0.40;;;5.90;99.90;;;;;;4951555;28;20035;-71
2021/12/17 03:12:51;;;;;;;0.82;0.82;;;5.80;99.90;;;;;;4952345;28;20027;-72
2021/12/17 03:15:36;;;;;;;0.10;0.10;;;5.80;99.90;;;;;;4977341;28;20081;-72
2021/12/17 03:23:39;;;;;;;0.10;0.10;;;5.70;99.90;;;;;;4959526;28;20046;-72
2021/12/17 03:26:20;;;;;;;0.57;0.57;;;5.80;99.90;;;;;;4952125;28;20291;-73
2021/12/17 03:28:48;;;;;;;1.83;1.75;;;5.90;99.90;;;;;;4951531;28;20039;-71
2021/12/17 03:31:15;;;;;;;0.10;0.10;;;5.90;99.90;;;;;;4950705;28;20035;-72
2021/12/17 03:33:44;;;;;;;0.10;0.10;;;5.80;99.90;;;;;;4959495;28;20426;-72
2021/12/17 03:36:15;;;;;;;7.53;3.10;;;5.80;99.90;;;;;;4970363;28;20031;-72
2021/12/17 03:38:43;;;;;;;0.10;0.10;;;5.70;99.90;;;;;;4970597;28;20082;-72
2021/12/17 03:41:16;;;;;;;1.55;1.45;;;5.70;99.90;;;;;;4968031;28;20049;-72
2021/12/17 03:43:42;;;;;;;;;;;5.70;99.90;;;;;;4970338;28;20489;-72
2021/12/17 03:46:07;;;;;;;0.10;0.10;;;5.70;99.90;;;;;;4970605;28;19917;-73
2021/12/17 03:48:37;;;;;;;0.47;0.47;;;5.70;99.90;;;;;;4970413;28;20113;-72
2021/12/17 03:51:04;;;;;;;0.63;0.63;;;5.70;99.90;;;;;;4969667;28;20027;-72
2021/12/17 03:53:30;;;;;;;0.25;0.25;;;5.60;99.90;;;;;;4970701;28;20477;-72
2021/12/17 03:55:56;;;;;;;0.10;0.10;;;5.50;99.90;;;;;;4970722;28;20105;-72
2021/12/17 03:58:22;;;;;;;0.10;0.10;;;5.60;99.90;;;;;;4966281;28;20054;-72
2021/12/17 04:00:47;;;;;;;0.20;0.20;;;5.60;99.90;;;;;;4967785;28;20473;-72
2021/12/17 04:03:13;;;;;;;0.10;0.10;;;5.60;99.90;;;;;;4970406;28;20039;-71
2021/12/17 04:05:41;;;;;;;0.10;0.10;;;5.60;99.90;;;;;;4970702;28;20034;-71
2021/12/17 04:08:07;;;;;;;0.65;0.65;;;5.70;99.90;;;;;;4967679;28;20032;-72
2021/12/17 04:10:40;;;;;;;0.38;0.38;;;5.80;99.90;;;;;;4951147;28;20039;-72
2021/12/17 04:13:26;;;;;;;0.60;0.60;;;6.20;99.90;;;;;;4951499;28;20339;-71
2021/12/17 04:15:58;;;;;;;0.10;0.10;;;5.70;99.90;;;;;;4954155;28;20081;-72
2021/12/17 04:18:25;;;;;;;0.10;0.10;;;5.60;99.90;;;;;;4953772;28;20036;-72
2021/12/17 04:20:51;;;;;;;0.55;0.55;;;5.60;99.90;;;;;;4954090;28;20031;-73
2021/12/17 04:23:17;;;;;;;0.10;0.10;;;5.60;99.90;;;;;;4962234;28;20035;-73
2021/12/17 04:25:43;;;;;;;3.70;0.88;;;5.60;99.90;;;;;;4984051;28;20030;-71
2021/12/17 04:28:09;;;;;;;0.98;0.98;;;5.50;99.90;;;;;;4958001;28;20106;-73
2021/12/17 04:30:35;;;;;;;0.15;0.15;;;5.60;99.90;;;;;;4956562;28;20031;-71
2021/12/17 04:33:01;;;;;;;0.10;0.10;;;5.60;99.90;;;;;;4973704;28;20493;-72
2021/12/17 04:35:27;;;;;;;0.10;0.10;;;5.50;99.90;;;;;;4973203;28;20118;-71
2021/12/17 04:37:52;;;;;;;0.10;0.10;;;5.50;99.90;;;;;;4969732;28;20106;-72
2021/12/17 04:40:21;;;;;;;0.30;0.30;;;5.60;99.90;;;;;;4972100;28;20033;-71
2021/12/17 04:45:12;;;;;;;0.10;0.10;;;5.60;99.90;;;;;;4973268;28;20031;-72
2021/12/17 04:58:42;;;;;;;0.10;0.10;;;5.60;99.90;;;;;;4957793;28;20057;-71
2021/12/17 05:01:12;;;;;;;1.55;1.52;;;5.60;99.90;;;;;;4973172;28;20060;-71
2021/12/17 05:03:38;;;;;;;0.10;0.10;;;5.60;99.90;;;;;;4963859;28;20097;-72
2021/12/17 05:06:04;;;;;;;0.15;0.15;;;5.60;99.90;;;;;;4954045;28;20027;-72
2021/12/17 05:08:30;;;;;;;1.13;1.13;;;5.70;99.90;;;;;;4973679;28;20035;-73
2021/12/17 05:11:25;;;;;;;0.10;0.10;;;5.70;99.90;;;;;;4972435;28;20485;-72
2021/12/17 05:21:38;;;;;;;0.10;0.10;;;6.00;99.90;;;;;;4954147;28;20035;-72
2021/12/17 05:24:04;;;;;;;0.15;0.15;;;6.00;99.90;;;;;;4954032;28;20106;-72
2021/12/17 05:26:29;;;;;;;0.30;0.30;;;6.00;99.90;;;;;;4967793;28;20038;-72
2021/12/17 05:28:55;;;;;;;0.32;0.32;;;6.00;99.90;;;;;;4971502;28;20039;-72
2021/12/17 05:31:21;;;;;;;3.88;2.97;;;6.00;99.90;;;;;;4971649;28;20502;-72
2021/12/17 05:33:52;;;;;;;0.38;0.38;;;5.90;99.90;;;;;;4972818;28;20023;-72
2021/12/17 05:36:18;;;;;;;0.10;0.10;;;6.00;99.90;;;;;;4976253;28;20488;-71
2021/12/17 05:38:44;;;;;;;4.80;4.13;;;6.00;99.90;;;;;;4977241;28;20026;-72
2021/12/17 05:41:09;;;;;;;0.10;0.10;;;5.90;99.90;;;;;;4966636;28;20031;-70
2021/12/17 05:43:37;;;;;;;0.20;0.20;;;6.00;99.90;;;;;;4971803;28;20121;-71
2021/12/17 05:48:32;;;;;;;0.20;0.20;;;6.00;99.90;;;;;;4954727;28;20043;-72
2021/12/17 05:51:02;;;;;;;0.10;0.10;;;6.00;99.90;;;;;;4951932;28;20127;-71
2021/12/17 05:53:31;;;;;;;0.10;0.10;;;6.10;99.90;;;;;;4967936;28;20401;-72
2021/12/17 05:55:57;;;;;;;4.78;4.32;;;6.20;99.90;;;;;;4953498;28;20023;-72
2021/12/17 05:58:24;;;;;;;0.30;0.30;;;6.30;99.90;;;;;;4967057;28;20553;-71
2021/12/17 06:00:50;;;;;;;0.20;0.20;;;6.30;99.90;;;;;;4954178;28;20035;-72
2021/12/17 06:03:17;;;;;;;2.65;1.58;;;6.30;99.90;;;;;;4952777;28;20042;-72
2021/12/17 06:05:43;;;;;;;0.30;0.30;;;6.30;99.90;;;;;;4953362;28;20031;-72
2021/12/17 06:08:09;;;;;;;0.10;0.10;;;6.30;99.90;;;;;;4953237;28;20493;-72
2021/12/17 06:10:35;;;;;;;0.00;0.00;;;6.30;99.90;;;;;;4952838;28;20126;-71
2021/12/17 06:13:01;;;;;;;0.10;0.10;;;6.30;99.90;;;;;;4963570;28;20027;-71
2021/12/17 06:15:26;;;;;;;0.10;0.10;;;6.30;99.90;;;;;;4965834;28;20046;-72
2021/12/17 06:17:54;;;;;;;0.20;0.20;;;6.30;99.90;;;;;;4971470;28;20400;-72
2021/12/17 06:20:22;;;;;;;0.10;0.10;;;6.40;99.90;;;;;;4969284;28;20066;-72
2021/12/17 06:22:48;;;;;;;0.10;0.10;;;6.40;99.90;;;;;;4971347;28;20085;-71
2021/12/17 06:25:14;;;;;;;0.10;0.10;;;6.40;99.90;;;;;;4969919;28;20031;-72
2021/12/17 06:27:41;;;;;;;0.13;0.13;;;6.40;99.90;;;;;;4970830;28;20035;-74
2021/12/17 06:30:09;;;;;;;0.32;0.32;;;6.40;99.90;;;;;;4966781;28;20042;-73
2021/12/17 06:32:35;;;;;;;0.40;0.40;;;6.40;99.90;;;;;;4971582;28;20544;-74
2021/12/17 06:35:01;;;;;;;7.78;6.93;;;6.30;99.90;;;;;;4971625;28;20039;-72
2021/12/17 06:37:26;;;;;;;0.10;0.10;;;6.30;99.90;;;;;;4968481;28;20113;-72
2021/12/17 06:39:52;;;;;;;0.10;0.10;;;6.30;99.90;;;;;;4970846;28;20033;-72
2021/12/17 06:42:18;;;;;;;0.10;0.10;;;6.30;99.90;;;;;;4964939;28;20097;-73
2021/12/17 06:44:46;;;;;;;0.10;0.10;;;6.20;99.90;;;;;;4970941;28;20043;-72
2021/12/17 07:10:49;;;;;;;0.10;0.10;;;6.10;99.90;;;;;;4964308;28;20499;-73
2021/12/17 07:34:07;;;;;;;0.20;0.20;;;6.40;99.90;;;;;;4961037;28;20023;-74
2021/12/17 07:36:43;;;;;;;0.10;0.10;;;6.30;99.90;;;;;;4969859;28;20102;-73
2021/12/17 07:39:09;;;;;;;0.55;0.55;;;6.30;99.90;;;;;;4964322;28;20333;-73
2021/12/17 07:41:35;;;;;;;0.10;0.10;;;6.30;99.90;;;;;;4967856;28;20085;-73
2021/12/17 07:44:01;;;;;;;0.10;0.10;;;6.30;99.90;;;;;;4967266;28;20130;-73
2021/12/17 07:46:28;;;;;;;0.30;0.30;;;6.30;99.90;;;;;;4958260;28;20023;-73
2021/12/17 07:48:55;;;;;;;2.30;2.10;;;6.20;99.90;;;;;;4969024;28;20098;-75
2021/12/17 07:51:23;;;;;;;0.45;0.45;;;6.30;99.90;;;;;;4969211;28;20022;-73
2021/12/17 07:53:50;;;;;;;0.10;0.10;;;6.20;99.90;;;;;;4966729;28;20038;-73
2021/12/17 07:56:19;;;;;;;0.10;0.10;;;6.20;99.90;;;;;;4970442;28;20031;-73
2021/12/17 07:58:45;;;;;;;0.10;0.10;;;6.30;99.90;;;;;;4971258;28;20081;-74
2021/12/17 08:01:12;;;;;;;0.10;0.10;;;6.30;99.90;;;;;;4973291;28;20023;-73
2021/12/17 08:03:42;;;;;;;0.10;0.10;;;6.30;99.90;;;;;;4969170;28;20022;-74
2021/12/17 08:06:08;;;;;;;0.10;0.10;;;6.30;99.90;;;;;;4972020;28;20023;-74
2021/12/17 08:08:34;;;;;;;0.25;0.25;;;6.30;99.90;;;;;;4970337;28;20035;-73
2021/12/17 08:11:00;;;;;;;0.10;0.10;;;6.30;99.90;;;;;;4969379;28;20125;-75
2021/12/17 08:13:29;;;;;;;2.13;1.40;;;6.30;99.90;;;;;;4966240;28;20573;-74
2021/12/17 08:16:08;;;;;;;0.10;0.10;;;6.30;99.90;;;;;;4968063;28;20440;-73
2021/12/17 08:31:48;;;;;;;0.10;0.10;;;6.20;99.90;;;;;;4973338;28;20039;-74
2021/12/17 08:34:14;;;;;;;0.10;0.10;;;6.10;99.90;;;;;;4971708;28;20030;-74
2021/12/17 08:36:39;;;;;;;0.10;0.10;;;6.10;99.90;;;;;;4966288;28;20118;-75
2021/12/17 08:39:05;;;;;;;0.10;0.10;;;6.10;99.90;;;;;;4969853;28;20026;-73
2021/12/17 08:41:31;;;;;;;0.10;0.10;;;6.10;99.90;;;;;;4968852;28;20041;-74
2021/12/17 08:43:56;;;;;;;0.55;0.55;;;6.10;99.90;;;;;;4970039;28;20550;-73
2021/12/17 08:46:22;;;;;;;0.20;0.20;;;6.10;99.90;;;;;;4972649;28;20035;-74
2021/12/17 08:48:48;;;;;;;0.10;0.10;;;6.10;99.90;;;;;;4968319;28;20022;-74
2021/12/17 08:51:14;;;;;;;0.10;0.10;;;6.10;99.90;;;;;;4971966;28;20031;-75
2021/12/17 08:53:39;;;;;;;0.10;0.10;;;6.10;99.90;;;;;;4967955;28;20019;-74
2021/12/17 08:56:05;;;;;;;0.40;0.38;;;6.20;99.90;;;;;;4968069;28;20092;-74
2021/12/17 08:58:32;;;;;;;0.10;0.10;;;6.10;99.90;;;;;;4967797;28;20022;-74
2021/12/17 09:00:58;;;;;;;0.10;0.10;;;6.20;99.90;;;;;;4969048;28;20042;-73
2021/12/17 09:03:23;;;;;;;0.10;0.10;;;6.10;99.90;;;;;;4971428;28;20035;-74
2021/12/17 09:05:49;;;;;;;0.52;0.52;;;6.20;99.90;;;;;;4966485;28;20374;-76
2021/12/17 09:08:16;;;;;;;0.13;0.13;;;6.20;99.90;;;;;;4970824;28;20114;-73
2021/12/17 09:10:44;;;;;;;0.10;0.10;;;6.20;99.90;;;;;;4965677;28;20030;-73
2021/12/17 09:13:10;;;;;;;0.10;0.10;;;6.30;99.90;;;;;;4970558;28;20102;-73
2021/12/17 09:15:36;;;;;;;0.10;0.10;;;6.40;99.90;;;;;;4968305;28;20203;-72
2021/12/17 09:18:02;;;;;;;0.10;0.10;;;6.40;99.90;;;;;;4966108;28;20109;-73
2021/12/17 09:20:28;;;;;;;0.10;0.10;;;6.50;99.90;;;;;;4962358;28;20049;-73
2021/12/17 09:22:54;;;;;;;0.40;0.40;;;6.60;99.90;;;;;;4970341;28;20069;-73
2021/12/17 09:25:19;;;;;;;0.10;0.10;;;6.70;99.90;;;;;;4967084;28;20069;-73
2021/12/17 09:27:45;;;;;;;0.10;0.10;;;6.90;99.90;;;;;;4968873;28;20062;-73
2021/12/17 09:30:14;;;;;;;0.10;0.10;;;7.10;99.90;;;;;;4965625;28;20564;-73
2021/12/17 09:32:41;;;;;;;0.10;0.10;;;7.20;99.90;;;;;;4972105;28;20023;-73
2021/12/17 09:35:12;;;;;;;0.00;0.00;;;7.10;99.90;;;;;;4969134;28;20019;-74
2021/12/17 09:37:39;;;;;;;0.00;0.00;;;7.00;99.90;;;;;;4971587;28;20138;-74
2021/12/17 09:40:08;;;;;;;0.10;0.10;;;7.00;99.90;;;;;;4963182;28;20031;-75
2021/12/17 09:42:34;;;;;;;0.10;0.10;;;7.10;99.90;;;;;;4972240;28;20019;-75
2021/12/17 09:45:00;;;;;;;0.10;0.10;;;7.10;99.90;;;;;;4969735;28;20054;-74
2021/12/17 09:47:26;;;;;;;0.10;0.10;;;7.00;99.90;;;;;;4966484;28;20450;-74
2021/12/17 09:49:54;;;;;;;0.10;0.10;;;7.10;99.90;;;;;;4972209;28;20497;-73
2021/12/17 09:52:20;;;;;;;0.10;0.10;;;7.00;99.90;;;;;;4971171;28;20429;-75
2021/12/17 09:54:45;;;;;;;0.10;0.10;;;7.00;99.90;;;;;;4967406;28;20034;-73
2021/12/17 09:57:11;;;;;;;0.10;0.10;;;7.00;99.90;;;;;;4968210;28;20026;-73
2021/12/17 09:59:37;;;;;;;0.10;0.10;;;7.00;99.90;;;;;;4969199;28;20531;-73
2021/12/17 10:02:02;;;;;;;0.10;0.10;;;7.00;99.90;;;;;;4971947;28;20039;-74
2021/12/17 10:04:31;;;;;;;0.10;0.10;;;7.00;99.90;;;;;;4968985;28;20122;-74
2021/12/17 10:07:18;;;;;;;0.10;0.10;;;7.10;99.90;;;;;;4966193;28;20047;-74
2021/12/17 10:09:55;;;;;;;2.30;1.98;;;7.10;99.90;;;;;;4965695;28;20094;-74
2021/12/17 10:12:26;;;;;;;0.90;0.90;;;7.10;99.90;;;;;;4966179;28;20034;-74
2021/12/17 10:15:21;;;;;;;0.10;0.10;;;7.10;99.90;;;;;;4969616;28;20030;-74
2021/12/17 10:18:00;;;;;;;0.10;0.10;;;7.20;99.90;;;;;;4972796;28;20082;-73
2021/12/17 10:20:29;;;;;;;0.10;0.10;;;7.20;99.90;;;;;;4968140;28;20520;-74
2021/12/17 10:23:00;;;;;;;0.10;0.10;;;7.30;99.90;;;;;;4962228;28;20844;-71
2021/12/17 10:25:28;;;;;;;0.10;0.10;;;7.40;99.90;;;;;;4963206;28;20027;-72
2021/12/17 10:27:59;;;;;;;0.10;0.10;;;7.30;99.90;;;;;;4967439;28;20127;-75
2021/12/17 10:30:27;;;;;;;0.10;0.10;;;7.40;99.90;;;;;;4970802;28;20030;-75
2021/12/17 10:32:55;;;;;;;0.10;0.10;;;7.40;99.90;;;;;;4971026;28;20142;-73
2021/12/17 10:35:23;;;;;;;0.20;0.20;;;7.50;99.90;;;;;;4966203;28;20054;-74
2021/12/17 10:37:57;;;;;;;0.10;0.10;;;7.50;99.90;;;;;;4965725;28;20052;-74
2021/12/17 10:40:25;;;;;;;0.10;0.10;;;7.50;99.90;;;;;;4968385;28;20030;-73
2021/12/17 10:43:08;;;;;;;0.30;0.30;;;7.60;99.90;;;;;;4967539;28;20677;-75
2021/12/17 10:45:41;;;;;;;0.30;0.30;;;7.50;99.90;;;;;;4968236;28;20030;-73
2021/12/17 10:48:34;;;;;;;0.10;0.10;;;7.60;99.90;;;;;;4969659;28;20126;-73
2021/12/17 10:51:15;;;;;;;0.10;0.10;;;7.60;99.90;;;;;;4967642;28;20035;-73
2021/12/17 10:53:53;;;;;;;0.10;0.10;;;7.70;99.90;;;;;;4964591;28;20026;-73
2021/12/17 10:56:23;;;;;;;0.40;0.40;;;7.60;99.90;;;;;;4968276;28;20038;-73
2021/12/17 10:58:59;;;;;;;0.10;0.10;;;7.60;99.90;;;;;;4968108;28;20027;-73
2021/12/17 11:01:31;;;;;;;0.10;0.10;;;7.60;99.90;;;;;;4968373;28;20035;-74
2021/12/17 11:04:10;;;;;;;0.10;0.10;;;7.70;99.90;;;;;;4969668;28;20027;-73
2021/12/17 11:06:58;;;;;;;0.10;0.10;;;7.70;99.90;;;;;;4966620;28;20125;-73
2021/12/17 11:09:35;;;;;;;0.10;0.10;;;7.60;99.90;;;;;;4963053;28;20035;-73
2021/12/17 11:12:17;;;;;;;0.17;0.17;;;7.50;99.90;;;;;;4969244;28;20081;-74
2021/12/17 11:14:44;;;;;;;0.10;0.10;;;7.50;99.90;;;;;;4965365;28;20057;-73
2021/12/17 11:17:11;;;;;;;0.63;0.63;;;7.60;99.90;;;;;;4970635;28;20033;-73
2021/12/17 11:19:37;;;;;;;0.10;0.10;;;7.60;99.90;;;;;;4967840;28;20054;-73
2021/12/17 11:22:04;;;;;;;0.10;0.10;;;7.60;99.90;;;;;;4965685;28;20034;-74
2021/12/17 11:24:32;;;;;;;0.10;0.10;;;7.60;99.90;;;;;;4967978;28;20186;-73
2021/12/17 11:26:59;;;;;;;0.10;0.10;;;7.60;99.90;;;;;;4958395;28;20114;-73
2021/12/17 11:29:26;;;;;;;0.10;0.10;;;7.60;99.90;;;;;;4965561;28;20057;-74
2021/12/17 11:31:51;;;;;;;0.10;0.10;;;7.60;99.90;;;;;;4963396;28;20031;-72
2021/12/17 11:34:18;;;;;;;0.10;0.10;;;7.50;99.90;;;;;;4968946;28;20023;-73
2021/12/17 11:36:45;;;;;;;0.10;0.10;;;7.50;99.90;;;;;;4969921;28;20450;-73
2021/12/17 11:39:31;;;;;;;0.40;0.40;;;7.40;99.90;;;;;;4964896;28;20049;-73
2021/12/17 11:42:18;;;;;;;0.10;0.10;;;7.40;99.90;;;;;;4968697;28;20530;-72
2021/12/17 11:44:53;;;;;;;0.10;0.10;;;7.50;99.90;;;;;;4969484;28;20027;-72
2021/12/17 11:47:20;;;;;;;5.28;1.85;;;7.50;99.90;;;;;;4966469;28;20038;-74
2021/12/17 11:49:49;;;;;;;1.13;1.13;;;7.40;99.90;;;;;;4964121;28;20034;-74
2021/12/17 11:52:34;;;;;;;0.77;0.35;;;7.50;99.90;;;;;;4967728;28;20034;-73
2021/12/17 11:55:38;;;;;;;0.10;0.10;;;7.60;99.90;;;;;;4966712;28;20035;-73
2021/12/17 11:58:12;;;;;;;0.10;0.10;;;7.60;99.90;;;;;;4964208;28;20170;-76
2021/12/17 12:00:41;;;;;;;0.10;0.10;;;7.70;99.90;;;;;;4961260;28;20054;-73
2021/12/17 12:03:24;;;;;;;0.10;0.10;;;7.80;99.90;;;;;;4968632;28;20035;-74
2021/12/17 12:05:52;;;;;;;0.10;0.10;;;7.80;99.90;;;;;;4963892;28;20766;-72
2021/12/17 12:08:24;;;;;;;0.10;0.10;;;7.80;99.90;;;;;;4969244;28;20047;-72
2021/12/17 12:11:27;;;;;;;0.10;0.10;;;7.80;99.90;;;;;;4968839;28;20436;-73
2021/12/17 12:13:56;;;;;;;0.10;0.10;;;7.80;99.90;;;;;;4994642;28;20037;-74
2021/12/17 12:16:27;;;;;;;0.20;0.20;;;7.90;99.90;;;;;;4973235;28;20094;-73
2021/12/17 12:18:57;;;;;;;0.30;0.30;;;7.90;99.90;;;;;;4961622;28;20026;-74
2021/12/17 12:21:32;;;;;;;0.10;0.10;;;8.00;99.90;;;;;;4968519;28;20558;-73
2021/12/17 12:24:11;;;;;;;0.10;0.10;;;7.90;99.90;;;;;;4964701;28;20031;-74
2021/12/17 12:26:43;;;;;;;0.10;0.10;;;7.90;99.90;;;;;;4967138;28;20443;-74
2021/12/17 12:29:18;;;;;;;0.57;0.57;;;7.90;99.90;;;;;;4966855;28;20053;-72
2021/12/17 12:31:47;;;;;;;0.28;0.28;;;8.00;99.90;;;;;;4968837;28;20027;-73
2021/12/17 12:34:31;;;;;;;0.10;0.10;;;8.10;99.90;;;;;;4965071;28;20434;-73
2021/12/17 12:37:15;;;;;;;0.25;0.25;;;8.10;99.90;;;;;;4965138;28;20030;-73
2021/12/17 12:39:43;;;;;;;0.10;0.10;;;8.10;99.90;;;;;;4960674;28;20019;-73
2021/12/17 12:42:24;;;;;;;0.10;0.10;;;8.10;99.90;;;;;;4966920;28;20027;-73
2021/12/17 12:44:49;;;;;;;0.10;0.10;;;8.10;99.90;;;;;;4968864;28;20166;-73
2021/12/17 12:47:23;;;;;;;0.10;0.10;;;8.20;99.90;;;;;;4971723;28;20113;-74
2021/12/17 12:49:56;;;;;;;0.10;0.10;;;8.20;99.90;;;;;;4968053;28;20577;-73
2021/12/17 12:52:34;;;;;;;1.05;1.05;;;8.20;99.90;;;;;;4969371;28;20534;-74
2021/12/17 12:55:01;;;;;;;0.10;0.10;;;8.20;99.90;;;;;;4968277;28;20056;-73
2021/12/17 12:57:37;;;;;;;0.10;0.10;;;8.20;99.90;;;;;;4968871;28;20323;-74
2021/12/17 13:00:11;;;;;;;0.10;0.10;;;8.20;99.90;;;;;;4968105;28;20086;-73
2021/12/17 13:02:37;;;;;;;0.10;0.10;;;8.30;99.90;;;;;;4967271;28;20023;-73
2021/12/17 13:05:06;;;;;;;0.20;0.20;;;8.30;99.90;;;;;;4969572;28;20035;-73
2021/12/17 13:07:47;;;;;;;1.48;1.38;;;8.40;99.90;;;;;;4971359;28;20489;-72
2021/12/17 13:10:27;;;;;;;0.10;0.10;;;8.40;99.90;;;;;;4964901;28;20511;-73
2021/12/17 13:13:16;;;;;;;0.00;0.00;;;8.50;99.90;;;;;;4971858;28;20033;-73
2021/12/17 13:15:49;;;;;;;0.08;0.08;;;8.60;99.90;;;;;;4971337;28;20030;-75
2021/12/17 13:23:57;;;;;;;0.10;0.10;;;9.20;99.90;;;;;;4967906;28;20640;-73
2021/12/17 13:26:25;;;;;;;0.10;0.10;;;9.70;99.90;;;;;;4966134;28;20038;-74
2021/12/17 13:29:04;;;;;;;0.10;0.10;;;10.10;99.90;;;;;;4968543;28;20105;-72
2021/12/17 13:31:50;;;;;;;0.00;0.00;;;9.90;99.90;;;;;;4967433;28;20027;-73
2021/12/17 13:34:29;;;;;;;0.10;0.10;;;9.10;99.90;;;;;;4967605;28;20059;-73
2021/12/17 13:37:03;;;;;;;0.77;0.60;;;9.00;99.90;;;;;;4969412;28;20113;-74
2021/12/17 13:40:04;;;;;;;0.10;0.10;;;8.80;99.90;;;;;;4965759;28;20065;-73
2021/12/17 13:42:36;;;;;;;0.10;0.10;;;8.60;99.90;;;;;;4963924;28;20022;-74
2021/12/17 13:45:05;;;;;;;0.10;0.10;;;8.80;99.90;;;;;;4963778;28;20081;-72
2021/12/17 13:47:45;;;;;;;0.13;0.13;;;9.20;99.90;;;;;;4966566;28;20440;-75
2021/12/17 13:50:18;;;;;;;0.10;0.10;;;9.90;99.90;;;;;;4966381;28;20066;-75
2021/12/17 13:52:53;;;;;;;0.10;0.10;;;9.80;99.90;;;;;;4969901;28;20027;-73
2021/12/17 13:55:23;;;;;;;0.10;0.10;;;9.90;99.90;;;;;;4968531;28;20027;-74
2021/12/17 13:57:50;;;;;;;0.00;0.00;;;10.30;99.90;;;;;;4967832;28;20067;-72
2021/12/17 14:00:23;;;;;;;0.10;0.10;;;10.80;99.90;;;;;;4969675;28;20037;-73
2021/12/17 14:02:50;;;;;;;0.08;0.08;;;10.40;99.90;;;;;;4971524;28;20053;-73
2021/12/17 14:05:29;;;;;;;0.00;0.00;;;10.90;99.90;;;;;;4969424;28;20031;-74
2021/12/17 14:07:57;;;;;;;0.00;0.00;;;11.20;99.90;;;;;;4970408;28;20126;-73
2021/12/17 14:10:32;;;;;;;0.63;0.63;;;11.00;99.90;;;;;;4967725;28;20166;-73
2021/12/17 14:12:59;;;;;;;0.03;0.03;;;10.50;99.90;;;;;;4967303;28;20071;-74
2021/12/17 14:15:28;;;;;;;0.00;0.00;;;10.40;99.90;;;;;;4969417;28;20102;-73
2021/12/17 14:17:57;;;;;;;0.00;0.00;;;10.40;99.90;;;;;;4967775;28;20019;-73
2021/12/17 14:20:25;;;;;;;0.10;0.10;;;10.00;99.90;;;;;;4964720;28;20042;-74
2021/12/17 14:22:55;;;;;;;0.10;0.10;;;9.60;99.90;;;;;;4969487;28;20023;-67
2021/12/17 14:25:24;;;;;;;0.22;0.22;;;9.60;99.90;;;;;;4965619;28;20114;-73
2021/12/17 14:27:50;;;;;;;0.00;0.00;;;9.40;99.90;;;;;;4969221;28;20042;-76
2021/12/17 14:30:22;;;;;;;0.00;0.00;;;9.20;99.90;;;;;;4963919;28;20026;-75
2021/12/17 14:32:49;;;;;;;0.10;0.10;;;9.10;99.90;;;;;;4971755;28;20090;-74
2021/12/17 14:35:16;;;;;;;0.10;0.10;;;8.90;99.90;;;;;;4952679;28;20048;-75
2021/12/17 14:37:49;;;;;;;0.10;0.10;;;8.80;99.90;;;;;;4966113;28;20027;-72
2021/12/17 14:40:31;;;;;;;;;;;8.70;99.90;;;;;;4958928;28;20019;-73
2021/12/17 14:42:57;;;;;;;0.10;0.10;;;8.50;99.90;;;;;;4965154;28;19938;-73
2021/12/17 14:45:36;;;;;;;0.10;0.10;;;8.40;99.90;;;;;;4965135;28;20041;-73
2021/12/17 14:48:19;;;;;;;0.17;0.17;;;8.30;99.90;;;;;;4961235;28;20027;-74
2021/12/17 15:02:12;;;;;;;0.10;0.10;;;8.00;99.90;;;;;;4962585;28;20027;-72
2021/12/17 15:04:38;;;;;;;0.10;0.10;;;8.00;99.90;;;;;;4959422;28;20039;-74
2021/12/17 15:07:04;;;;;;;0.10;0.10;;;8.00;99.90;;;;;;4963852;28;20102;-73
2021/12/17 15:09:32;;;;;;;0.10;0.10;;;8.00;99.90;;;;;;4968301;28;20023;-74
2021/12/17 15:12:00;;;;;;;0.10;0.10;;;8.10;99.90;;;;;;4960298;28;20019;-74
2021/12/17 15:14:26;;;;;;;0.10;0.10;;;8.00;99.90;;;;;;4968633;28;20037;-72
2021/12/17 15:16:53;;;;;;;0.10;0.10;;;8.00;99.90;;;;;;4965008;28;20022;-72
2021/12/17 15:19:19;;;;;;;0.10;0.10;;;7.80;99.90;;;;;;4968785;28;20026;-71
2021/12/17 15:21:44;;;;;;;0.10;0.10;;;7.80;99.90;;;;;;4966663;28;20019;-71
2021/12/17 15:24:10;;;;;;;0.05;0.05;;;7.80;99.90;;;;;;4979617;22;20377;-72
2021/12/17 15:26:36;;;;;;;0.10;0.10;;;7.80;99.90;;;;;;4948263;28;20537;-71
2021/12/17 15:29:01;;;;;;;0.10;0.10;;;7.70;99.90;;;;;;4948799;29;20024;-73
2021/12/17 15:31:27;;;;;;;0.15;0.15;;;7.70;99.90;;;;;;4949769;28;20571;-72
2021/12/17 15:33:53;;;;;;;0.10;0.10;;;7.70;99.90;;;;;;4947015;28;20119;-73
2021/12/17 15:36:18;;;;;;;0.10;0.10;;;7.60;99.90;;;;;;4960826;28;20406;-71
2021/12/17 15:38:44;;;;;;;0.10;0.10;;;7.60;99.90;;;;;;4951840;28;20472;-72
2021/12/17 15:41:09;;;;;;;0.20;0.20;;;7.50;99.90;;;;;;4951206;28;20473;-72
2021/12/17 15:43:35;;;;;;;0.10;0.10;;;7.50;99.90;;;;;;4949082;29;20433;-72
2021/12/17 15:46:01;;;;;;;0.10;0.10;;;7.50;99.90;;;;;;4949754;28;20489;-72
2021/12/17 15:48:27;;;;;;;0.43;0.43;;;7.50;99.90;;;;;;4950668;28;20557;-69
2021/12/17 15:50:52;;;;;;;0.10;0.10;;;7.50;99.90;;;;;;4947054;28;20119;-80
2021/12/17 15:53:18;;;;;;;0.10;0.10;;;7.50;99.90;;;;;;4946777;28;20474;-72
2021/12/17 15:55:44;;;;;;;0.10;0.10;;;7.50;99.90;;;;;;4949714;28;20038;-71
2021/12/17 15:58:11;;;;;;;0.10;0.10;;;7.40;99.90;;;;;;4951382;28;20058;-73
2021/12/17 16:00:36;;;;;;;2.60;1.45;;;7.40;99.90;;;;;;4949789;29;20032;-72
2021/12/17 16:03:07;;;;;;;0.10;0.10;;;7.40;99.90;;;;;;4948780;28;20058;-73
2021/12/17 16:05:34;;;;;;;0.10;0.10;;;7.50;99.90;;;;;;4950852;28;20445;-74
2021/12/17 16:08:00;;;;;;;0.10;0.10;;;7.50;99.90;;;;;;4950795;28;20023;-73
2021/12/17 16:21:08;;;;;;;0.10;0.10;;;7.30;99.90;;;;;;4953276;28;20114;-74
2021/12/17 16:23:39;;;;;;;0.10;0.10;;;7.30;99.90;;;;;;4954027;28;20141;-70
2021/12/17 16:26:06;;;;;;;0.10;0.10;;;7.20;99.90;;;;;;4949363;29;20035;-68
2021/12/17 16:28:33;;;;;;;0.30;0.30;;;7.20;99.90;;;;;;4951551;28;20028;-71
2021/12/17 16:31:11;;;;;;;0.38;0.38;;;7.20;99.90;;;;;;4953672;28;20031;-71
2021/12/17 16:33:40;;;;;;;0.10;0.10;;;7.20;99.90;;;;;;4953707;29;20146;-72
2021/12/17 16:36:06;;;;;;;0.10;0.10;;;7.10;99.90;;;;;;4957447;28;20019;-71